Time;durP1;ratioP1;P1;durP2;ratioP2;P2;SDS_P1;SDS_P2;PMS_P1;PMS_P2;Temp;Humidity;BMP_temperature;BMP_pressure;BME280_temperature;BME280_humidity;BME280_pressure;Samples;Min_cycle;Max_cycle;Signal;HPM_P1;HPM_P2
2021/04/14 04:41:42;;;;;;;28.98;18.15;;;;;;;5.81;89.98;100320.33;1736012;80;21765;-49
2021/04/14 04:44:10;;;;;;;36.93;20.52;;;;;;;6.11;90.35;100329.16;1737226;81;21724;-47
2021/04/14 04:46:38;;;;;;;31.87;18.70;;;;;;;6.27;90.39;100331.19;1735976;81;21180;-47
2021/04/14 04:49:07;;;;;;;34.25;18.32;;;;;;;6.44;90.38;100328.02;1732259;82;21119;-47
2021/04/14 04:51:37;;;;;;;26.50;18.52;;;;;;;6.56;90.42;100326.50;1731749;81;21607;-39
2021/04/14 04:54:07;;;;;;;29.63;18.82;;;;;;;6.73;90.43;100328.08;1733941;81;21182;-39
2021/04/14 04:56:35;;;;;;;32.93;19.07;;;;;;;6.92;90.30;100327.50;1731481;81;21141;-40
2021/04/14 04:59:04;;;;;;;31.48;19.62;;;;;;;7.06;90.00;100323.79;1731870;81;21549;-48
2021/04/14 05:01:32;;;;;;;31.10;20.35;;;;;;;7.22;89.70;100324.02;1737787;81;21152;-48
2021/04/14 05:04:00;;;;;;;27.93;18.15;;;;;;;7.34;89.31;100326.36;1731628;81;21183;-47
2021/04/14 05:06:28;;;;;;;31.05;18.62;;;;;;;7.46;88.69;100326.95;1737944;81;21147;-39
2021/04/14 05:08:56;;;;;;;28.35;17.85;;;;;;;7.54;88.23;100320.53;1734427;81;21635;-47
2021/04/14 05:11:25;;;;;;;26.55;17.27;;;;;;;7.63;88.09;100316.75;1727292;80;21150;-48
2021/04/14 05:13:53;;;;;;;23.75;17.37;;;;;;;7.75;87.94;100312.98;1744078;80;21422;-40
2021/04/14 05:16:22;;;;;;;27.17;18.15;;;;;;;7.85;87.28;100321.36;1738685;80;21157;-40
2021/04/14 05:18:52;;;;;;;26.10;19.48;;;;;;;7.90;87.10;100319.69;1733087;81;21147;-47
2021/04/14 05:21:23;;;;;;;29.98;18.60;;;;;;;7.97;86.80;100324.53;1732322;81;21178;-49
2021/04/14 05:23:56;;;;;;;34.38;18.62;;;;;;;8.03;86.54;100330.23;1712007;81;21158;-41
2021/04/14 05:26:26;;;;;;;31.07;19.95;;;;;;;8.08;86.39;100325.52;1732198;81;21304;-48
2021/04/14 05:28:54;;;;;;;27.60;18.77;;;;;;;8.16;86.10;100324.29;1727944;81;21330;-48
2021/04/14 05:31:29;;;;;;;28.87;18.67;;;;;;;8.26;86.08;100330.05;1729997;81;21588;-47
2021/04/14 05:33:58;;;;;;;31.97;19.10;;;;;;;8.36;85.44;100325.84;1726266;81;21140;-39
2021/04/14 05:36:29;;;;;;;;;;;;;;;8.43;85.31;100334.16;1713055;81;21516;-48
2021/04/14 05:39:21;;;;;;;31.05;19.00;;;;;;;8.47;85.27;100334.20;1702361;82;20409;-47
2021/04/14 05:42:48;;;;;;;33.78;18.65;;;;;;;8.58;85.30;100325.17;1677669;84;21600;-38
2021/04/14 05:45:55;;;;;;;27.27;16.80;;;;;;;8.74;84.81;100324.41;1723899;81;21186;-46
2021/04/14 05:49:36;;;;;;;24.95;17.73;;;;;;;8.88;83.76;100315.84;1694908;81;21171;-41
2021/04/14 05:52:53;;;;;;;23.62;17.25;;;;;;;8.95;83.13;100319.80;1711316;81;21191;-48
2021/04/14 05:55:48;;;;;;;33.50;20.45;;;;;;;9.04;82.22;100311.14;1700747;81;21216;-45
2021/04/14 05:59:13;;;;;;;33.60;19.62;;;;;;;9.09;81.44;100309.44;1705204;81;21748;-47
2021/04/14 06:02:11;;;;;;;31.85;18.27;;;;;;;9.15;81.72;100313.83;1718113;81;21191;-48
2021/04/14 06:04:57;;;;;;;34.80;20.43;;;;;;;9.25;80.97;100314.33;1721765;81;21558;-41
2021/04/14 06:07:44;;;;;;;36.42;19.82;;;;;;;9.33;80.08;100317.44;1728459;81;21675;-40
2021/04/14 06:10:15;;;;;;;36.77;20.25;;;;;;;9.46;79.67;100301.83;1725612;81;21195;-40
2021/04/14 06:12:47;;;;;;;27.98;18.48;;;;;;;9.59;79.00;100311.02;1724888;82;21179;-40
2021/04/14 06:15:25;;;;;;;34.18;19.92;;;;;;;9.68;76.88;100306.69;1702541;82;21500;-43
2021/04/14 06:17:56;;;;;;;28.85;19.07;;;;;;;9.69;76.46;100294.96;1724636;81;21620;-47
2021/04/14 06:25:04;;;;;;;26.50;17.77;;;;;;;9.92;75.47;100292.41;1718974;81;21155;-47
2021/04/14 06:36:33;;;;;;;28.60;15.95;;;;;;;10.20;70.18;100281.98;1718241;81;21197;-41
2021/04/14 06:39:10;;;;;;;27.30;15.70;;;;;;;10.33;68.97;100287.73;1723065;81;21147;-48
2021/04/14 06:42:21;;;;;;;24.70;16.40;;;;;;;10.40;68.20;100282.93;1743793;80;21592;-48
2021/04/14 06:45:06;;;;;;;27.27;16.52;;;;;;;10.48;68.38;100279.00;1750547;80;21184;-48
2021/04/14 06:47:51;;;;;;;24.18;16.23;;;;;;;10.66;68.63;100285.09;1753763;80;21150;-47
2021/04/14 06:50:40;;;;;;;22.07;13.93;;;;;;;10.91;67.78;100277.23;1749284;79;21615;-39
2021/04/14 06:53:21;;;;;;;22.32;14.30;;;;;;;11.14;65.62;100274.13;1747427;80;21183;-49
2021/04/14 06:56:02;;;;;;;24.80;14.85;;;;;;;11.34;65.01;100275.81;1747183;79;21671;-48
2021/04/14 06:58:43;;;;;;;20.80;14.70;;;;;;;11.49;63.92;100271.84;1750128;81;21301;-46
2021/04/14 07:01:14;;;;;;;24.67;14.60;;;;;;;11.59;63.85;100271.34;1750076;80;21163;-40
2021/04/14 07:04:11;;;;;;;22.27;15.18;;;;;;;11.71;64.10;100267.34;1734181;81;21573;-48
2021/04/14 07:06:41;;;;;;;22.13;14.18;;;;;;;11.86;63.71;100267.75;1681876;83;21864;-47
2021/04/14 07:09:36;;;;;;;26.77;15.32;;;;;;;12.07;62.96;100272.00;1674426;83;21863;-39
2021/04/14 07:12:11;;;;;;;21.12;14.40;;;;;;;12.21;62.62;100267.52;1677327;83;21368;-48
2021/04/14 07:14:41;;;;;;;24.57;14.30;;;;;;;12.36;62.20;100264.80;1673073;83;21324;-38
2021/04/14 07:17:51;;;;;;;24.20;14.53;;;;;;;12.47;61.71;100255.09;1676499;83;21143;-46
2021/04/14 07:21:08;;;;;;;26.10;13.90;;;;;;;12.66;61.14;100251.85;1796834;78;22973;-38
2021/04/14 07:23:49;;;;;;;21.42;13.38;;;;;;;12.74;60.94;100250.02;1747738;80;21611;-39
2021/04/14 07:26:44;;;;;;;16.25;11.45;;;;;;;12.94;59.26;100245.02;1760928;79;21575;-39
2021/04/14 07:33:35;;;;;;;16.07;11.10;;;;;;;12.94;57.16;100246.34;1765498;79;21830;-43
2021/04/14 07:36:40;;;;;;;;;;;;;;;12.86;58.07;100238.52;1768523;79;21532;-47
2021/04/14 07:39:34;;;;;;;15.75;10.50;;;;;;;12.97;58.56;100242.34;1765358;79;20201;-40
2021/04/14 07:42:33;;;;;;;17.67;10.60;;;;;;;13.10;58.01;100236.52;1770030;79;21171;-46
2021/04/14 07:45:31;;;;;;;17.23;10.55;;;;;;;13.11;56.97;100236.52;1766829;79;21216;-39
2021/04/14 07:48:11;;;;;;;16.05;10.13;;;;;;;13.04;56.60;100233.52;1767248;79;21135;-38
2021/04/14 07:50:49;;;;;;;12.33;9.03;;;;;;;13.04;57.38;100234.83;1767187;79;21656;-39
2021/04/14 07:53:23;;;;;;;15.40;11.70;;;;;;;13.11;57.31;100233.89;1741260;80;21694;-47
2021/04/14 07:56:19;;;;;;;26.48;10.13;;;;;;;13.15;56.75;100233.39;1730128;81;21646;-47
2021/04/14 07:59:05;;;;;;;14.83;10.13;;;;;;;13.17;56.57;100231.64;1672887;82;21544;-39
2021/04/14 08:01:35;;;;;;;16.23;10.38;;;;;;;13.20;57.01;100228.52;1721349;82;21190;-39
2021/04/14 08:04:28;;;;;;;21.85;11.70;;;;;;;13.26;56.56;100222.35;1721098;82;21595;-40
2021/04/14 08:07:13;;;;;;;22.48;10.78;;;;;;;13.29;56.21;100229.77;1723437;82;21632;-41
2021/04/14 08:09:53;;;;;;;14.05;9.33;;;;;;;13.39;55.92;100225.25;1643133;85;21161;-40
2021/04/14 08:12:52;;;;;;;16.85;10.28;;;;;;;13.55;54.97;100220.67;1795233;78;23056;-47
2021/04/14 08:15:53;;;;;;;14.63;9.55;;;;;;;13.47;55.12;100219.47;1771428;79;21929;-48
2021/04/14 08:18:35;;;;;;;16.77;10.23;;;;;;;13.41;55.58;100212.11;1715068;80;21724;-47
2021/04/14 08:38:40;;;;;;;12.93;9.70;;;;;;;14.10;55.20;100197.53;1696015;81;21180;-41
2021/04/14 08:41:45;;;;;;;11.40;8.43;;;;;;;13.97;55.62;100187.62;1714741;82;21186;-48
2021/04/14 08:45:18;;;;;;;13.38;8.40;;;;;;;14.00;55.74;100181.47;1698719;82;21645;-48
2021/04/14 08:48:55;;;;;;;11.08;7.97;;;;;;;14.00;55.96;100183.64;1710281;82;21188;-39
2021/04/14 08:51:39;;;;;;;18.95;10.15;;;;;;;13.97;55.80;100178.41;1716366;82;21538;-41
2021/04/14 08:54:11;;;;;;;14.28;8.78;;;;;;;13.98;55.46;100173.61;1715762;82;21189;-40
2021/04/14 08:57:07;;;;;;;10.85;8.50;;;;;;;13.97;55.35;100169.66;1696296;82;21690;-47
2021/04/14 08:59:44;;;;;;;16.82;8.50;;;;;;;13.92;54.86;100172.84;1716015;82;21586;-38
2021/04/14 09:02:18;;;;;;;10.32;7.60;;;;;;;13.87;55.47;100172.90;1687775;82;21342;-47
2021/04/14 09:04:47;;;;;;;13.13;9.03;;;;;;;13.89;55.92;100168.92;1716304;82;21182;-47
2021/04/14 09:07:31;;;;;;;14.85;9.10;;;;;;;13.88;55.85;100174.63;1714677;82;21170;-48
2021/04/14 09:10:05;;;;;;;15.35;8.75;;;;;;;13.82;56.37;100173.41;1685407;82;21627;-39
2021/04/14 09:13:01;;;;;;;12.15;9.18;;;;;;;13.81;55.67;100167.73;1698223;82;21758;-40
2021/04/14 09:15:59;;;;;;;13.93;8.30;;;;;;;13.80;55.50;100172.58;1697809;83;22246;-42
2021/04/14 09:19:23;;;;;;;12.65;8.13;;;;;;;13.81;55.52;100164.66;1751110;80;21558;-46
2021/04/14 09:23:07;;;;;;;11.97;8.00;;;;;;;13.87;55.02;100158.44;1757358;80;21219;-47
2021/04/14 09:26:35;;;;;;;11.12;7.42;;;;;;;13.97;54.99;100159.14;1739139;80;21159;-39
2021/04/14 09:29:46;;;;;;;15.15;8.38;;;;;;;13.96;54.43;100151.70;1747007;80;21788;-40
2021/04/14 09:33:11;;;;;;;16.45;8.50;;;;;;;13.93;54.87;100146.95;1728634;80;21546;-47
2021/04/14 09:35:56;;;;;;;11.57;8.98;;;;;;;13.98;54.67;100146.44;1754919;80;22072;-46
2021/04/14 09:38:51;;;;;;;10.03;7.65;;;;;;;14.02;55.48;100144.16;1753485;80;21602;-39
2021/04/14 09:41:30;;;;;;;12.15;7.03;;;;;;;14.13;55.39;100140.03;1753714;80;21167;-40
2021/04/14 09:44:17;;;;;;;15.93;7.50;;;;;;;14.26;54.38;100138.50;1748543;80;21592;-41
2021/04/14 09:46:56;;;;;;;10.32;6.55;;;;;;;14.35;54.03;100133.06;1757015;80;21849;-38
2021/04/14 09:49:38;;;;;;;11.30;8.03;;;;;;;14.34;53.96;100128.70;1751639;80;21755;-40
2021/04/14 09:52:33;;;;;;;8.88;6.78;;;;;;;14.34;53.68;100130.02;1716460;81;21281;-39
2021/04/14 09:55:34;;;;;;;18.27;7.78;;;;;;;14.37;53.55;100131.25;1752106;80;21132;-47
2021/04/14 09:58:09;;;;;;;10.75;7.30;;;;;;;14.35;53.74;100127.80;1752429;80;21166;-49
2021/04/14 10:01:17;;;;;;;12.65;8.28;;;;;;;14.35;54.60;100121.22;1753156;80;21164;-48
2021/04/14 10:04:36;;;;;;;8.00;6.50;;;;;;;14.40;54.58;100123.77;1753975;80;21635;-39
2021/04/14 10:08:10;;;;;;;9.10;6.78;;;;;;;14.54;54.60;100123.08;1756049;80;21320;-39
2021/04/14 10:11:52;;;;;;;7.35;5.83;;;;;;;14.74;53.44;100119.22;1758577;80;21579;-46
2021/04/14 10:20:24;;;;;;;7.70;6.22;;;;;;;14.91;53.08;100113.16;1762101;80;21131;-39
2021/04/14 10:24:23;;;;;;;8.93;6.10;;;;;;;14.94;52.08;100113.53;1762899;80;21249;-46
2021/04/14 10:27:35;;;;;;;9.93;6.97;;;;;;;15.02;52.08;100106.36;1761179;80;21308;-46
2021/04/14 10:30:07;;;;;;;8.28;5.75;;;;;;;15.05;51.95;100097.92;1757357;80;21363;-46
2021/04/14 10:32:35;;;;;;;;;;;;;;;15.04;52.15;100092.70;1766082;80;21320;-39
2021/04/14 10:35:14;;;;;;;7.78;5.65;;;;;;;15.00;51.44;100097.60;1758651;80;20542;-47
2021/04/14 10:37:46;;;;;;;8.80;6.03;;;;;;;14.89;51.60;100100.45;1766477;80;21744;-46
2021/04/14 10:40:21;;;;;;;8.58;6.03;;;;;;;14.72;51.87;100101.25;1763341;80;21343;-40
2021/04/14 10:42:53;;;;;;;7.90;5.60;;;;;;;14.49;52.19;100102.56;1746077;80;21147;-41
2021/04/14 10:45:25;;;;;;;10.28;6.03;;;;;;;14.26;52.77;100096.41;1764105;80;21191;-42
2021/04/14 10:47:57;;;;;;;9.63;6.47;;;;;;;14.13;53.38;100094.86;1757295;80;21137;-47
2021/04/14 10:50:31;;;;;;;9.48;6.22;;;;;;;14.04;54.14;100093.73;1757040;80;21295;-46
2021/04/14 10:53:07;;;;;;;9.28;7.03;;;;;;;13.99;55.03;100096.88;1761386;80;21185;-39
2021/04/14 10:55:40;;;;;;;12.82;7.53;;;;;;;13.95;55.66;100095.19;1764141;80;21154;-40
2021/04/14 10:58:23;;;;;;;9.65;7.35;;;;;;;13.92;55.23;100089.55;1791961;78;23097;-39
2021/04/14 11:00:58;;;;;;;16.97;9.90;;;;;;;13.85;55.62;100094.02;1772826;79;21312;-40
2021/04/14 11:03:32;;;;;;;8.73;6.25;;;;;;;13.81;55.54;100087.09;1711995;79;21123;-48
2021/04/14 11:06:09;;;;;;;10.98;7.10;;;;;;;13.79;55.39;100094.11;1770640;79;21597;-47
2021/04/14 11:08:46;;;;;;;9.03;6.95;;;;;;;13.81;55.52;100091.03;1767899;79;21538;-48
2021/04/14 11:11:23;;;;;;;12.60;6.35;;;;;;;13.81;55.80;100082.28;1671996;83;21131;-38
2021/04/14 11:13:52;;;;;;;11.28;6.47;;;;;;;13.79;56.42;100084.91;1695846;82;21196;-40
2021/04/14 11:16:20;;;;;;;7.53;5.45;;;;;;;13.84;55.78;100079.13;1706746;83;21543;-46
2021/04/14 11:18:48;;;;;;;11.63;6.22;;;;;;;13.94;55.71;100074.59;1721661;81;21187;-38
2021/04/14 11:21:30;;;;;;;12.63;6.45;;;;;;;14.07;56.44;100068.22;1703538;81;21140;-38
2021/04/14 11:27:20;;;;;;;15.20;6.72;;;;;;;14.32;54.69;100070.39;1745219;81;21175;-48
2021/04/14 11:29:51;;;;;;;10.90;6.20;;;;;;;14.41;53.88;100062.34;1717723;82;21214;-44
2021/04/14 11:32:24;;;;;;;8.53;5.62;;;;;;;14.46;54.45;100063.12;1740497;81;21316;-40
2021/04/14 11:34:59;;;;;;;10.15;6.72;;;;;;;14.51;53.89;100064.38;1706437;81;21531;-45
2021/04/14 11:37:40;;;;;;;11.20;6.75;;;;;;;14.57;53.74;100057.68;1714394;82;21176;-40
2021/04/14 11:40:24;;;;;;;18.20;6.15;;;;;;;14.59;53.95;100048.84;1726896;81;21654;-43
2021/04/14 11:42:58;;;;;;;13.45;7.22;;;;;;;14.60;53.67;100054.52;1742248;81;21164;-39
2021/04/14 11:45:36;;;;;;;8.45;5.30;;;;;;;14.58;52.95;100047.56;1736791;81;21618;-40
2021/04/14 11:48:15;;;;;;;10.18;5.67;;;;;;;14.51;53.75;100046.82;1732498;81;21336;-46
2021/04/14 11:50:45;;;;;;;11.95;6.22;;;;;;;14.55;53.67;100036.66;1724366;83;21170;-45
2021/04/14 11:53:24;;;;;;;11.15;5.55;;;;;;;14.60;54.06;100034.77;1710801;82;21208;-41
